Time;durP1;ratioP1;P1;durP2;ratioP2;P2;SDS_P1;SDS_P2;PMS_P1;PMS_P2;Temp;Humidity;BMP_temperature;BMP_pressure;BME280_temperature;BME280_humidity;BME280_pressure;Samples;Min_cycle;Max_cycle;Signal;HPM_P1;HPM_P2
2021/07/01 00:02:17;;;;;;;45.30;23.27;;;;;;;14.68;100.00;100915.19;5099141;27;20345;-79
2021/07/01 00:04:53;;;;;;;35.97;22.30;;;;;;;14.72;100.00;100920.94;5095547;27;1172042;-79
2021/07/01 00:07:29;;;;;;;41.42;22.13;;;;;;;14.67;100.00;100918.78;5065070;27;20891;-79
2021/07/01 00:10:10;;;;;;;36.67;20.00;;;;;;;14.68;100.00;100912.53;5084641;27;20083;-77
2021/07/01 00:12:50;;;;;;;38.58;21.75;;;;;;;14.68;100.00;100924.91;5066086;27;20856;-77
2021/07/01 00:15:29;;;;;;;29.00;18.48;;;;;;;14.64;100.00;100918.34;5068831;28;20375;-77
2021/07/01 00:18:05;;;;;;;28.25;18.48;;;;;;;14.56;100.00;100905.91;5069504;28;20384;-79
2021/07/01 00:20:42;;;;;;;30.20;19.52;;;;;;;14.61;100.00;100906.28;5085040;27;20852;-78
2021/07/01 00:23:19;;;;;;;34.03;17.08;;;;;;;14.68;100.00;100907.25;5064195;28;20142;-79
2021/07/01 00:25:55;;;;;;;29.35;17.52;;;;;;;14.69;100.00;100908.06;5065023;28;20141;-78
2021/07/01 00:28:31;;;;;;;27.35;13.70;;;;;;;14.67;100.00;100912.69;5048942;27;20142;-77
2021/07/01 00:31:07;;;;;;;19.70;13.25;;;;;;;14.64;100.00;100905.94;5091702;27;1212915;-79
2021/07/01 00:33:43;;;;;;;21.67;14.27;;;;;;;14.65;100.00;100897.03;5145963;27;20808;-79
2021/07/01 00:36:19;;;;;;;22.23;12.43;;;;;;;14.69;100.00;100903.63;5064449;28;20138;-75
2021/07/01 00:38:56;;;;;;;19.70;11.43;;;;;;;14.69;100.00;100905.44;5063638;28;20087;-78
2021/07/01 00:41:33;;;;;;;17.13;11.15;;;;;;;14.66;100.00;100897.88;5089818;27;20130;-80
2021/07/01 00:44:08;;;;;;;16.17;11.40;;;;;;;14.74;100.00;100903.13;5090218;27;1170601;-78
2021/07/01 00:46:49;;;;;;;16.20;10.57;;;;;;;14.70;100.00;100897.34;5148687;27;20124;-78
2021/07/01 00:49:26;;;;;;;16.75;11.23;;;;;;;14.75;100.00;100896.84;5141239;27;20745;-77
2021/07/01 00:52:03;;;;;;;15.27;10.38;;;;;;;14.73;100.00;100897.03;5109206;27;20394;-77
2021/07/01 00:54:39;;;;;;;17.55;11.30;;;;;;;14.72;100.00;100897.19;5094299;27;20133;-78
2021/07/01 00:57:15;;;;;;;16.40;11.20;;;;;;;14.68;100.00;100895.88;5104866;27;1168305;-79
2021/07/01 00:59:50;;;;;;;22.17;10.75;;;;;;;14.64;100.00;100890.13;5067051;28;20386;-79
2021/07/01 01:02:27;;;;;;;17.92;10.60;;;;;;;14.57;100.00;100889.94;5089173;27;20134;-78
2021/07/01 01:05:03;;;;;;;17.47;10.93;;;;;;;14.51;100.00;100892.44;5105288;27;1163679;-79
2021/07/01 01:07:39;;;;;;;15.68;10.57;;;;;;;14.44;100.00;100894.09;5063089;28;20393;-78
2021/07/01 01:10:15;;;;;;;17.00;10.90;;;;;;;14.43;100.00;100895.06;5080756;27;20141;-78
2021/07/01 01:12:58;;;;;;;17.75;10.50;;;;;;;14.43;100.00;100897.69;5063510;28;20386;-79
2021/07/01 01:15:41;;;;;;;17.85;11.88;;;;;;;14.43;100.00;100884.50;5115290;27;20381;-77
2021/07/01 01:18:18;;;;;;;18.58;11.80;;;;;;;14.40;100.00;100888.31;5051364;28;20127;-79
2021/07/01 01:20:56;;;;;;;19.50;12.85;;;;;;;14.43;100.00;100888.00;5066221;28;20500;-79
2021/07/01 01:23:33;;;;;;;21.33;13.05;;;;;;;14.41;100.00;100889.97;5106239;27;20365;-78
2021/07/01 01:26:10;;;;;;;20.17;13.48;;;;;;;14.37;100.00;100881.56;5041713;27;20142;-81
2021/07/01 01:28:56;;;;;;;21.05;13.75;;;;;;;14.40;100.00;100881.22;5110655;27;20713;-79
2021/07/01 01:31:36;;;;;;;22.60;14.27;;;;;;;14.43;100.00;100877.44;5059468;28;20765;-76
2021/07/01 01:34:15;;;;;;;26.73;15.27;;;;;;;14.47;100.00;100873.47;5105482;27;20377;-77
2021/07/01 01:36:52;;;;;;;29.02;14.98;;;;;;;14.43;100.00;100872.16;5087031;27;20386;-78
2021/07/01 01:39:28;;;;;;;21.35;14.20;;;;;;;14.39;100.00;100861.13;5127017;27;20148;-80
2021/07/01 01:42:11;;;;;;;23.75;14.65;;;;;;;14.39;100.00;100870.81;5064167;28;20402;-79
2021/07/01 01:44:48;;;;;;;27.83;16.25;;;;;;;14.41;100.00;100874.97;5092049;27;20144;-79
2021/07/01 01:47:23;;;;;;;26.37;17.17;;;;;;;14.48;100.00;100869.00;5091626;27;1165389;-77
2021/07/01 01:49:59;;;;;;;24.27;15.60;;;;;;;14.43;100.00;100868.69;5032087;27;20422;-79
2021/07/01 01:52:36;;;;;;;21.27;14.80;;;;;;;14.40;100.00;100870.66;5107725;27;20133;-78
2021/07/01 01:55:13;;;;;;;24.20;15.43;;;;;;;14.38;100.00;100863.91;5104252;27;20144;-76
2021/07/01 01:57:50;;;;;;;24.45;16.20;;;;;;;14.37;100.00;100863.09;5053145;28;20611;-78
2021/07/01 02:00:53;;;;;;;23.88;15.65;;;;;;;14.33;100.00;100861.75;5127533;27;20383;-80
2021/07/01 02:03:30;;;;;;;31.63;18.63;;;;;;;14.35;100.00;100859.81;5066964;28;20127;-78
2021/07/01 02:06:17;;;;;;;27.58;17.52;;;;;;;14.39;100.00;100857.63;5064751;28;20387;-78
2021/07/01 02:08:54;;;;;;;32.78;18.83;;;;;;;14.36;100.00;100858.00;5048195;28;20575;-79
2021/07/01 02:11:31;;;;;;;30.98;19.55;;;;;;;14.36;100.00;100863.25;5105559;27;20132;-79
2021/07/01 02:14:07;;;;;;;34.38;19.08;;;;;;;14.36;100.00;100861.44;5104112;27;20136;-79
2021/07/01 02:17:03;;;;;;;34.58;19.08;;;;;;;14.35;100.00;100859.81;5120878;27;20397;-78
2021/07/01 02:19:38;;;;;;;31.35;19.70;;;;;;;14.34;100.00;100863.44;5110004;27;1166980;-80
2021/07/01 02:22:15;;;;;;;34.58;20.13;;;;;;;14.34;100.00;100859.97;5065567;28;20434;-77
2021/07/01 02:24:53;;;;;;;33.10;20.65;;;;;;;14.33;100.00;100856.50;5162284;27;20353;-80
2021/07/01 02:27:30;;;;;;;37.58;21.40;;;;;;;14.34;100.00;100860.78;5049002;28;20186;-81
2021/07/01 02:30:09;;;;;;;35.70;22.37;;;;;;;14.41;100.00;100869.69;5107310;27;1170183;-79
2021/07/01 02:32:48;;;;;;;31.52;18.50;;;;;;;14.30;100.00;100856.84;5147485;27;20394;-78
2021/07/01 02:35:26;;;;;;;30.80;19.02;;;;;;;14.35;100.00;100864.25;5055330;28;20400;-79
2021/07/01 02:38:20;;;;;;;26.13;17.60;;;;;;;14.37;100.00;100868.38;5085910;27;21320;-78
2021/07/01 02:40:58;;;;;;;24.70;17.45;;;;;;;14.37;100.00;100865.75;5104913;27;20862;-78
2021/07/01 02:43:39;;;;;;;25.67;16.30;;;;;;;14.38;100.00;100863.91;5098368;27;20382;-79
2021/07/01 02:46:34;;;;;;;27.15;15.93;;;;;;;14.40;100.00;100881.22;5097466;27;20394;-77
2021/07/01 02:49:13;;;;;;;31.38;18.05;;;;;;;14.38;100.00;100864.72;5066572;28;20359;-78
2021/07/01 02:51:53;;;;;;;32.92;17.13;;;;;;;14.34;100.00;100873.16;5084573;27;20581;-76
2021/07/01 02:54:30;;;;;;;26.42;16.27;;;;;;;14.33;100.00;100868.88;5065608;28;20380;-79
2021/07/01 02:57:06;;;;;;;23.25;14.98;;;;;;;14.33;100.00;100869.69;5098790;27;20133;-75
2021/07/01 02:59:45;;;;;;;24.88;14.82;;;;;;;14.31;100.00;100869.03;5069100;28;20383;-76
2021/07/01 03:02:31;;;;;;;23.65;14.27;;;;;;;14.37;100.00;100867.53;5059455;28;20416;-78
2021/07/01 03:05:22;;;;;;;23.92;13.80;;;;;;;14.34;100.00;100871.34;5071182;28;20360;-79
2021/07/01 03:07:58;;;;;;;19.73;12.20;;;;;;;14.34;100.00;100871.34;5123700;27;20136;-77
2021/07/01 03:10:36;;;;;;;17.23;11.30;;;;;;;14.32;100.00;100875.97;5091976;27;20899;-78
2021/07/01 03:13:14;;;;;;;21.75;10.07;;;;;;;14.30;100.00;100871.84;5101292;27;20402;-77
2021/07/01 03:15:51;;;;;;;15.27;8.43;;;;;;;14.19;100.00;100867.75;5099877;27;20385;-79
2021/07/01 03:18:28;;;;;;;14.73;7.85;;;;;;;14.20;100.00;100859.66;5091244;27;20126;-76
2021/07/01 03:21:22;;;;;;;13.65;7.38;;;;;;;14.21;100.00;100863.94;5109037;27;1179918;-78
2021/07/01 03:24:04;;;;;;;9.32;7.35;;;;;;;14.21;100.00;100857.84;5115730;27;20746;-79
2021/07/01 03:26:39;;;;;;;13.47;7.40;;;;;;;14.21;100.00;100863.13;5089522;27;1180757;-79
2021/07/01 03:29:15;;;;;;;14.52;6.45;;;;;;;14.19;100.00;100858.00;5072192;28;20379;-78
2021/07/01 03:31:51;;;;;;;12.88;7.88;;;;;;;14.28;100.00;100863.25;5128839;27;1315348;-78
2021/07/01 03:34:27;;;;;;;10.23;6.60;;;;;;;14.30;100.00;100869.22;5066722;28;20382;-76
2021/07/01 03:37:04;;;;;;;11.05;7.25;;;;;;;14.27;100.00;100861.63;5110142;27;20051;-79
2021/07/01 03:39:58;;;;;;;15.43;7.10;;;;;;;14.17;100.00;100861.81;5065773;28;20372;-77
2021/07/01 03:42:36;;;;;;;11.15;7.60;;;;;;;14.20;100.00;100864.09;5062771;27;20400;-78
2021/07/01 03:45:13;;;;;;;15.50;9.65;;;;;;;14.15;100.00;100856.69;5102170;27;20731;-76
2021/07/01 03:47:51;;;;;;;16.05;10.07;;;;;;;14.13;100.00;100860.50;5109500;27;20341;-77
2021/07/01 03:50:27;;;;;;;17.73;10.98;;;;;;;14.16;100.00;100857.50;5094098;27;20389;-78
2021/07/01 03:53:12;;;;;;;21.48;11.80;;;;;;;14.15;100.00;100869.88;5104294;27;20430;-77
2021/07/01 03:55:48;;;;;;;23.67;12.23;;;;;;;14.16;100.00;100857.50;5085304;28;20152;-78
2021/07/01 03:58:27;;;;;;;17.60;12.02;;;;;;;14.06;100.00;100854.25;5101227;27;21020;-77
2021/07/01 04:01:18;;;;;;;20.17;12.10;;;;;;;14.07;100.00;100847.97;5090492;27;20362;-79
2021/07/01 04:03:54;;;;;;;24.52;12.68;;;;;;;14.09;100.00;100853.88;5080058;27;20604;-78
2021/07/01 04:06:34;;;;;;;21.55;12.82;;;;;;;14.11;100.00;100858.03;5129478;27;20386;-78
2021/07/01 04:09:11;;;;;;;17.70;11.70;;;;;;;14.12;100.00;100848.28;5068029;28;20134;-78
2021/07/01 04:11:58;;;;;;;17.23;11.80;;;;;;;14.15;100.00;100858.53;5065870;28;20865;-78
2021/07/01 04:14:36;;;;;;;20.98;11.70;;;;;;;14.14;100.00;100860.31;5061934;28;20130;-79
2021/07/01 04:17:30;;;;;;;19.50;12.00;;;;;;;14.17;100.00;100861.81;5104674;27;1185829;-78
2021/07/01 04:20:27;;;;;;;16.02;10.95;;;;;;;14.20;100.00;100859.66;5097581;27;20135;-78
2021/07/01 04:23:21;;;;;;;21.83;12.27;;;;;;;14.28;100.00;100853.56;5097555;27;20373;-80
2021/07/01 04:26:17;;;;;;;14.70;10.48;;;;;;;14.25;100.00;100853.88;5075574;27;1932053;-79
2021/07/01 04:28:53;;;;;;;17.10;10.07;;;;;;;14.22;100.00;100859.47;5128461;27;20934;-79
2021/07/01 04:31:33;;;;;;;16.60;10.00;;;;;;;14.23;100.00;100855.03;5106787;27;20877;-79
2021/07/01 04:34:12;;;;;;;16.08;10.30;;;;;;;14.27;100.00;100853.72;5050879;27;20411;-77
2021/07/01 04:36:48;;;;;;;14.60;9.70;;;;;;;14.24;100.00;100849.59;5125560;27;1187018;-78
2021/07/01 04:39:23;;;;;;;17.37;10.03;;;;;;;14.35;100.00;100853.69;5094966;27;1196203;-77
2021/07/01 04:42:13;;;;;;;15.80;9.70;;;;;;;14.31;100.00;100853.19;5039576;28;20390;-79
2021/07/01 04:44:49;;;;;;;13.98;9.88;;;;;;;14.40;100.00;100860.09;5096140;27;20128;-78
2021/07/01 04:47:27;;;;;;;11.52;8.50;;;;;;;14.35;100.00;100856.31;5117256;27;1218628;-78
2021/07/01 04:50:11;;;;;;;15.13;8.88;;;;;;;14.36;100.00;100856.16;5065284;28;20376;-79
2021/07/01 04:52:50;;;;;;;12.27;8.57;;;;;;;14.34;100.00;100863.44;5079537;27;20392;-79
2021/07/01 04:56:04;;;;;;;15.40;8.43;;;;;;;14.36;100.00;100858.00;5099398;27;1185365;-80
2021/07/01 04:58:55;;;;;;;11.80;7.68;;;;;;;14.30;100.00;100858.66;5105225;27;20386;-78
2021/07/01 05:02:01;;;;;;;14.18;7.80;;;;;;;14.33;100.00;100863.59;5115242;27;20380;-79
2021/07/01 05:04:54;;;;;;;10.60;7.00;;;;;;;14.35;100.00;100867.72;5116259;27;1190412;-78
2021/07/01 05:07:31;;;;;;;11.48;7.18;;;;;;;14.35;100.00;100877.44;5135312;27;20389;-79
2021/07/01 05:10:08;;;;;;;12.82;7.40;;;;;;;14.31;100.00;100879.59;5130864;27;20139;-78
2021/07/01 05:12:58;;;;;;;11.40;7.10;;;;;;;14.24;100.00;100869.88;5106053;27;1186655;-77
2021/07/01 05:15:35;;;;;;;9.27;6.53;;;;;;;14.32;100.00;100870.69;5100364;27;20394;-80
2021/07/01 05:18:15;;;;;;;12.15;6.57;;;;;;;14.26;100.00;100868.72;5063704;28;21095;-80
2021/07/01 05:20:53;;;;;;;9.35;6.68;;;;;;;14.31;100.00;100871.66;5114071;27;20374;-79
2021/07/01 05:24:06;;;;;;;7.23;6.13;;;;;;;14.31;100.00;100887.50;5087904;27;1178675;-79
2021/07/01 05:27:08;;;;;;;9.30;7.00;;;;;;;14.34;100.00;100878.44;5065538;28;20371;-79
2021/07/01 05:30:03;;;;;;;10.30;7.00;;;;;;;14.28;100.00;100879.94;5136120;27;20398;-79
2021/07/01 05:32:58;;;;;;;9.63;6.32;;;;;;;14.31;100.00;100876.13;5107170;27;20373;-75
2021/07/01 05:35:37;;;;;;;7.10;5.80;;;;;;;14.34;100.00;100871.34;5142521;27;20927;-76
2021/07/01 05:38:12;;;;;;;9.00;5.90;;;;;;;14.38;100.00;100869.19;5102929;27;1180127;-79
2021/07/01 05:40:48;;;;;;;7.35;5.60;;;;;;;14.41;100.00;100882.88;5118120;27;20377;-77
2021/07/01 05:43:25;;;;;;;8.57;5.50;;;;;;;14.40;100.00;100885.69;5111641;27;20133;-79
2021/07/01 05:46:03;;;;;;;9.68;5.68;;;;;;;14.42;100.00;100875.78;5108095;27;20405;-79
2021/07/01 05:48:41;;;;;;;7.85;5.50;;;;;;;14.42;100.00;100886.34;5091295;27;20165;-77
2021/07/01 05:51:18;;;;;;;9.23;5.30;;;;;;;14.38;100.00;100882.38;5126070;27;20383;-77
2021/07/01 05:54:14;;;;;;;5.60;4.75;;;;;;;14.40;100.00;100889.13;5060022;28;20123;-77
2021/07/01 05:56:50;;;;;;;8.50;5.20;;;;;;;14.38;100.00;100898.22;5132802;27;20782;-77
2021/07/01 05:59:27;;;;;;;8.20;5.68;;;;;;;14.34;100.00;100892.44;5070735;28;20741;-79
2021/07/01 06:02:03;;;;;;;5.60;5.10;;;;;;;14.37;100.00;100893.91;5065187;28;20600;-78
2021/07/01 06:04:40;;;;;;;7.43;5.57;;;;;;;14.39;100.00;100895.41;5042004;27;20179;-78
2021/07/01 06:07:36;;;;;;;5.68;4.90;;;;;;;14.43;100.00;100892.44;5087928;27;20387;-79
2021/07/01 06:10:16;;;;;;;7.00;5.03;;;;;;;14.46;100.00;100890.28;5106900;27;20151;-76
2021/07/01 06:12:53;;;;;;;8.63;5.00;;;;;;;14.50;100.00;100888.13;5098032;27;20920;-76
2021/07/01 06:15:33;;;;;;;8.75;4.65;;;;;;;14.50;100.00;100886.31;5106293;27;20881;-77
2021/07/01 06:18:09;;;;;;;9.32;4.40;;;;;;;14.59;100.00;100892.44;5072446;28;20402;-76
2021/07/01 06:20:46;;;;;;;6.30;4.25;;;;;;;14.63;100.00;100885.00;5106385;27;20128;-75
2021/07/01 06:23:22;;;;;;;4.80;4.10;;;;;;;14.58;100.00;100877.59;5096495;27;20087;-77
2021/07/01 06:25:59;;;;;;;4.78;3.90;;;;;;;14.66;100.00;100882.03;5083092;28;20133;-77
2021/07/01 06:28:40;;;;;;;4.63;3.78;;;;;;;14.58;100.00;100888.97;5090016;27;20133;-76
2021/07/01 06:31:17;;;;;;;5.82;3.63;;;;;;;14.64;100.00;100884.84;5106605;27;20384;-76
2021/07/01 06:33:53;;;;;;;4.63;3.75;;;;;;;14.66;100.00;100887.31;5087514;27;20142;-77
2021/07/01 06:36:34;;;;;;;6.10;3.90;;;;;;;14.68;100.00;100882.69;5125633;27;20132;-76
2021/07/01 06:39:35;;;;;;;6.32;3.28;;;;;;;14.59;100.00;100877.41;5067817;28;20390;-77
2021/07/01 06:42:33;;;;;;;3.15;2.50;;;;;;;14.64;100.00;100884.84;5060155;27;20487;-77
2021/07/01 06:45:28;;;;;;;3.78;2.67;;;;;;;14.73;100.00;100894.38;5086599;27;20366;-77
2021/07/01 06:48:25;;;;;;;3.58;3.28;;;;;;;14.67;100.00;100895.03;5095016;27;20408;-77
2021/07/01 06:51:20;;;;;;;3.40;3.10;;;;;;;14.69;100.00;100897.50;5064962;28;20873;-77
2021/07/01 06:54:17;;;;;;;3.90;3.10;;;;;;;14.73;100.00;100904.94;5046755;28;20400;-77
2021/07/01 06:57:05;;;;;;;3.00;2.70;;;;;;;14.70;100.00;100909.72;5091693;27;20369;-78
2021/07/01 06:59:43;;;;;;;6.80;3.60;;;;;;;14.72;100.00;100905.09;5120220;27;1200094;-78
2021/07/01 07:02:21;;;;;;;2.95;2.65;;;;;;;14.76;100.00;100904.56;5109086;27;20187;-77
2021/07/01 07:04:57;;;;;;;4.63;2.80;;;;;;;14.80;100.00;100907.72;5121158;27;1184099;-79
2021/07/01 07:07:33;;;;;;;3.28;2.78;;;;;;;14.89;100.00;100909.31;5040883;27;20428;-78
2021/07/01 07:10:12;;;;;;;3.40;3.10;;;;;;;14.95;100.00;100916.56;5104171;27;20631;-78
2021/07/01 07:12:54;;;;;;;5.23;3.17;;;;;;;14.96;100.00;100915.59;5134069;27;1192912;-78
2021/07/01 07:15:32;;;;;;;3.88;3.42;;;;;;;15.01;100.00;100922.16;5106636;27;20734;-78
2021/07/01 07:18:34;;;;;;;3.97;3.60;;;;;;;15.04;100.00;100920.00;5065051;28;20396;-76
2021/07/01 07:21:17;;;;;;;4.60;4.20;;;;;;;15.04;100.00;100920.00;5085827;28;20377;-78
2021/07/01 07:23:55;;;;;;;4.93;3.90;;;;;;;15.09;100.00;100922.16;5074672;27;20394;-78
2021/07/01 07:26:31;;;;;;;5.88;4.10;;;;;;;15.06;100.00;100920.66;5139952;27;20498;-78
2021/07/01 07:29:15;;;;;;;5.82;4.85;;;;;;;15.05;100.00;100912.91;5104020;27;20381;-79
2021/07/01 07:31:50;;;;;;;4.93;4.32;;;;;;;15.12;100.00;100919.97;5115944;27;20740;-78
2021/07/01 07:34:29;;;;;;;6.72;4.68;;;;;;;15.16;100.00;100920.44;5106256;27;20132;-78
2021/07/01 07:37:04;;;;;;;6.33;4.83;;;;;;;15.14;100.00;100917.16;5113423;27;1197099;-77
2021/07/01 07:39:40;;;;;;;5.75;5.25;;;;;;;15.26;100.00;100921.06;5126375;27;20930;-76
2021/07/01 07:42:18;;;;;;;7.90;5.18;;;;;;;15.27;100.00;100916.59;5106367;27;1189177;-77
2021/07/01 07:44:57;;;;;;;7.35;4.82;;;;;;;15.30;100.00;100922.38;5106812;27;20120;-77
2021/07/01 07:47:33;;;;;;;9.00;5.63;;;;;;;15.38;100.00;100919.66;5078374;27;20870;-78
2021/07/01 07:50:11;;;;;;;6.55;5.90;;;;;;;15.46;100.00;100912.69;5130926;27;20132;-78
2021/07/01 07:52:51;;;;;;;8.85;6.55;;;;;;;15.53;100.00;100918.94;5043437;27;20402;-77
2021/07/01 07:55:30;;;;;;;6.75;6.15;;;;;;;15.54;100.00;100921.41;5066194;28;20383;-77
2021/07/01 07:58:06;;;;;;;11.57;8.20;;;;;;;15.60;100.00;100921.72;5100763;27;20378;-77
2021/07/01 08:00:43;;;;;;;8.15;7.30;;;;;;;15.60;100.00;100917.25;5114662;27;20151;-78
2021/07/01 08:03:19;;;;;;;10.07;8.30;;;;;;;15.71;100.00;100926.59;5107898;27;20128;-77
2021/07/01 08:05:58;;;;;;;9.57;7.60;;;;;;;15.83;100.00;100927.84;5066575;27;20127;-78
2021/07/01 08:08:37;;;;;;;10.30;9.25;;;;;;;15.84;100.00;100929.50;5098549;27;20396;-77
2021/07/01 08:11:15;;;;;;;10.18;9.10;;;;;;;16.01;100.00;100930.22;5107230;27;20370;-78
2021/07/01 08:13:56;;;;;;;9.45;8.40;;;;;;;16.10;100.00;100923.81;5087918;27;20390;-77
2021/07/01 08:16:32;;;;;;;12.75;9.32;;;;;;;16.25;100.00;100926.50;5106378;27;20882;-77
2021/07/01 08:19:09;;;;;;;9.48;8.27;;;;;;;16.30;100.00;100929.44;5127505;27;20128;-78
2021/07/01 08:22:25;;;;;;;11.80;8.48;;;;;;;16.40;100.00;100937.13;5081392;27;20388;-77
2021/07/01 08:25:02;;;;;;;9.68;7.95;;;;;;;16.39;100.00;100932.00;5106648;27;20669;-75
2021/07/01 08:27:40;;;;;;;9.73;8.83;;;;;;;16.56;100.00;100941.47;5048572;27;1185553;-78
2021/07/01 08:30:20;;;;;;;8.82;7.32;;;;;;;16.60;100.00;100940.09;5065988;28;20887;-76
2021/07/01 08:32:59;;;;;;;9.88;8.57;;;;;;;16.71;100.00;100938.84;5092772;28;20398;-78
2021/07/01 08:35:36;;;;;;;9.02;8.05;;;;;;;16.84;100.00;100940.84;5065640;28;20361;-76
2021/07/01 08:38:12;;;;;;;9.00;8.00;;;;;;;16.96;100.00;100936.75;5095062;27;1183201;-78
2021/07/01 08:40:49;;;;;;;9.73;8.80;;;;;;;17.17;100.00;100936.00;5137475;27;1184654;-79
2021/07/01 08:43:41;;;;;;;9.88;8.70;;;;;;;17.43;100.00;100947.94;5113640;27;20140;-76
2021/07/01 08:46:24;;;;;;;10.55;7.88;;;;;;;17.50;100.00;100949.66;5105684;27;20742;-77
2021/07/01 08:49:08;;;;;;;9.57;7.88;;;;;;;17.52;100.00;100950.28;5089925;27;20378;-78
2021/07/01 08:51:45;;;;;;;9.03;8.13;;;;;;;17.46;100.00;100951.03;5116681;27;1187317;-76
2021/07/01 08:54:35;;;;;;;9.70;7.87;;;;;;;17.28;100.00;100951.41;5101345;27;1190603;-77
2021/07/01 08:57:15;;;;;;;9.50;8.27;;;;;;;17.23;100.00;100943.19;5081217;27;20725;-79
2021/07/01 09:00:20;;;;;;;9.37;8.00;;;;;;;17.10;100.00;100949.19;5139728;27;1176006;-78
2021/07/01 09:03:03;;;;;;;9.60;8.60;;;;;;;16.95;100.00;100944.88;5073346;28;20391;-77
2021/07/01 09:05:39;;;;;;;10.52;7.97;;;;;;;16.89;100.00;100946.44;5066189;28;20387;-77
2021/07/01 09:08:19;;;;;;;10.27;9.27;;;;;;;16.93;100.00;100948.53;5102689;27;1182214;-79
2021/07/01 09:11:01;;;;;;;9.23;8.23;;;;;;;16.85;100.00;100953.91;5074168;28;20387;-78
2021/07/01 09:13:45;;;;;;;8.65;7.40;;;;;;;16.79;100.00;100949.31;5107817;27;20385;-78
2021/07/01 09:16:20;;;;;;;8.13;7.15;;;;;;;16.75;100.00;100945.41;5103942;27;1191987;-79
2021/07/01 09:18:59;;;;;;;12.20;8.18;;;;;;;16.81;100.00;100957.91;5114813;27;1264995;-78
2021/07/01 09:21:36;;;;;;;8.30;7.45;;;;;;;16.83;100.00;100953.28;5120853;27;1189024;-78
2021/07/01 09:24:13;;;;;;;9.32;8.00;;;;;;;16.85;100.00;100964.50;5069535;27;20398;-78
2021/07/01 09:26:49;;;;;;;9.77;8.77;;;;;;;16.89;100.00;100962.31;5133531;27;1201755;-78
2021/07/01 09:29:26;;;;;;;8.57;7.68;;;;;;;16.85;100.00;100956.56;5116933;27;20381;-77
2021/07/01 09:32:03;;;;;;;9.23;7.97;;;;;;;16.98;100.00;100965.72;5107589;27;20365;-81
2021/07/01 09:34:41;;;;;;;9.38;8.48;;;;;;;16.99;100.00;100962.88;5101781;27;20613;-78
2021/07/01 09:37:21;;;;;;;9.23;8.25;;;;;;;17.03;100.00;100969.47;5105441;27;20365;-81
2021/07/01 09:39:57;;;;;;;12.18;8.75;;;;;;;16.94;100.00;100967.91;5073549;28;20391;-77
2021/07/01 09:42:35;;;;;;;8.88;7.93;;;;;;;16.93;100.00;100966.25;5045253;28;20135;-78
2021/07/01 09:45:13;;;;;;;13.10;10.07;;;;;;;16.95;100.00;100960.78;5109401;27;1179481;-79
2021/07/01 09:48:09;;;;;;;11.80;9.52;;;;;;;16.88;100.00;100958.88;5066585;28;20383;-79
2021/07/01 09:50:48;;;;;;;12.43;10.20;;;;;;;16.90;100.00;100966.63;5103416;27;20393;-78
2021/07/01 09:53:29;;;;;;;11.88;9.65;;;;;;;16.98;100.00;100966.53;5076448;28;20360;-78
2021/07/01 09:56:12;;;;;;;11.13;9.88;;;;;;;17.00;100.00;100963.69;5114179;27;20389;-79
2021/07/01 09:58:50;;;;;;;11.60;10.48;;;;;;;17.10;100.00;100965.06;5134276;27;20375;-78
2021/07/01 10:01:31;;;;;;;12.32;10.90;;;;;;;17.18;100.00;100964.16;5113966;27;20373;-78
2021/07/01 10:04:09;;;;;;;14.18;9.52;;;;;;;17.29;100.00;100966.34;5134321;27;20375;-78
2021/07/01 10:07:01;;;;;;;13.90;10.82;;;;;;;17.44;100.00;100971.63;5087628;28;20134;-81
2021/07/01 10:09:38;;;;;;;11.90;9.93;;;;;;;17.53;100.00;100972.31;5102020;27;21101;-79
2021/07/01 10:12:15;;;;;;;13.38;9.50;;;;;;;17.65;100.00;100976.13;5107647;27;20132;-77
2021/07/01 10:14:56;;;;;;;12.20;9.88;;;;;;;17.74;100.00;100971.50;5106697;27;20385;-76
2021/07/01 10:17:32;;;;;;;13.52;9.38;;;;;;;17.86;100.00;100967.41;5072952;28;20390;-79
2021/07/01 10:20:10;;;;;;;13.07;10.75;;;;;;;17.88;100.00;100975.16;5072041;28;20135;-77
2021/07/01 10:22:47;;;;;;;10.45;9.45;;;;;;;17.84;100.00;100972.06;5107940;27;20454;-74
2021/07/01 10:25:32;;;;;;;11.38;10.20;;;;;;;17.88;100.00;100972.53;5102867;27;20140;-79
2021/07/01 10:28:11;;;;;;;16.08;10.60;;;;;;;17.81;100.00;100980.38;5074848;27;20383;-76
2021/07/01 10:31:03;;;;;;;10.80;9.70;;;;;;;17.81;100.00;100974.25;5097970;27;20398;-78
2021/07/01 10:33:42;;;;;;;11.75;10.55;;;;;;;17.81;100.00;100972.41;5113916;27;20364;-78
2021/07/01 10:36:25;;;;;;;12.45;10.18;;;;;;;17.77;100.00;100972.97;5099871;27;20398;-76
2021/07/01 10:39:02;;;;;;;12.65;10.57;;;;;;;17.77;100.00;100976.44;5128347;27;20367;-77
2021/07/01 10:41:41;;;;;;;12.60;9.80;;;;;;;17.68;100.00;100981.03;5106132;27;1179198;-78
2021/07/01 10:44:23;;;;;;;11.30;10.13;;;;;;;17.80;100.00;100983.19;5066679;28;20364;-76
2021/07/01 10:47:00;;;;;;;13.80;11.23;;;;;;;18.01;100.00;100977.94;5127496;27;20395;-77
2021/07/01 10:49:37;;;;;;;14.15;11.43;;;;;;;18.27;100.00;100982.69;5072742;28;20130;-78
2021/07/01 10:52:13;;;;;;;13.18;11.35;;;;;;;18.74;100.00;100988.34;5114197;27;20126;-78
2021/07/01 10:54:58;;;;;;;12.55;8.77;;;;;;;19.08;100.00;100981.41;5049534;27;20135;-79
2021/07/01 10:57:35;;;;;;;8.02;7.25;;;;;;;19.28;100.00;100986.81;5065727;28;20398;-78
2021/07/01 11:00:09;;;;;;;7.70;6.80;;;;;;;19.44;100.00;100986.47;5117850;27;1199607;-78
2021/07/01 11:02:49;;;;;;;7.30;5.65;;;;;;;19.20;98.36;100987.00;5087732;27;20394;-79
2021/07/01 11:05:34;;;;;;;6.82;5.38;;;;;;;19.14;99.13;100985.94;5127019;27;20363;-79
2021/07/01 11:08:22;;;;;;;8.18;5.68;;;;;;;19.22;100.00;100995.59;5072471;28;20889;-78
2021/07/01 11:11:16;;;;;;;9.55;5.80;;;;;;;19.32;99.01;100984.59;5100223;27;20408;-76
2021/07/01 11:14:03;;;;;;;8.00;6.20;;;;;;;19.36;100.00;100989.28;5106169;27;20365;-77
2021/07/01 11:16:45;;;;;;;6.80;5.97;;;;;;;19.62;100.00;100985.09;5068580;28;20388;-78
2021/07/01 11:19:21;;;;;;;9.50;5.72;;;;;;;19.86;100.00;100986.41;5086427;27;20371;-77
2021/07/01 11:21:58;;;;;;;5.97;4.93;;;;;;;20.03;96.12;100995.66;5067607;28;20146;-78
2021/07/01 11:24:40;;;;;;;5.30;4.80;;;;;;;20.12;94.41;100992.81;5087525;28;20122;-78
2021/07/01 11:27:23;;;;;;;6.10;5.00;;;;;;;20.24;96.28;100993.84;5081316;27;20339;-78
2021/07/01 11:29:59;;;;;;;7.30;5.15;;;;;;;20.23;96.77;100995.69;5068829;28;20372;-80
2021/07/01 11:32:37;;;;;;;7.72;4.57;;;;;;;20.25;93.89;100995.50;5127248;27;20128;-78
2021/07/01 11:35:23;;;;;;;5.97;4.50;;;;;;;20.22;94.07;101002.03;5066800;28;20383;-79
2021/07/01 11:37:58;;;;;;;4.70;4.23;;;;;;;20.16;95.28;100994.84;5098627;27;1179342;-79
2021/07/01 11:40:35;;;;;;;7.72;4.40;;;;;;;20.23;94.24;100995.69;5104965;27;20917;-78
2021/07/01 11:43:13;;;;;;;6.90;4.47;;;;;;;20.22;95.53;100999.34;5081146;27;20145;-76
2021/07/01 11:45:51;;;;;;;8.27;4.68;;;;;;;20.23;94.78;101006.34;5118701;27;20386;-75
2021/07/01 11:48:30;;;;;;;4.90;4.40;;;;;;;20.24;93.05;101001.81;5127433;27;20914;-74
2021/07/01 11:51:07;;;;;;;4.43;4.13;;;;;;;20.22;96.80;101003.88;5132651;27;20356;-80
2021/07/01 11:53:44;;;;;;;4.75;3.97;;;;;;;20.14;92.38;101004.88;5078385;28;20153;-75
2021/07/01 11:56:23;;;;;;;4.95;3.92;;;;;;;20.14;89.02;100996.91;5066719;28;20398;-77
2021/07/01 11:58:59;;;;;;;8.27;4.55;;;;;;;20.19;96.41;101004.25;5054232;28;20922;-77
2021/07/01 12:01:36;;;;;;;8.00;4.20;;;;;;;20.35;96.96;101011.06;5109039;27;20133;-78
2021/07/01 12:04:14;;;;;;;3.80;3.50;;;;;;;20.41;88.63;101019.03;5085938;27;20129;-78
2021/07/01 12:07:16;;;;;;;5.32;4.45;;;;;;;20.24;90.34;101015.13;5128034;27;20368;-77
2021/07/01 12:09:54;;;;;;;5.05;4.03;;;;;;;20.27;91.76;101016.56;5067621;28;20908;-75